This is the latest recevied weather packets stored in our database for station/object OK0EK-12. If no packets are shown the sender has not sent any weather packets the latest 10 day(s).
| Time | Temp. | Humidity | Pressure | Rain* | Wind** | Luminosity | Snow |
|---|---|---|---|---|---|---|---|
| 1777722612 | 30° C | 17% | 1102.5 hPa | - | - | - | - |
| 1777722581 | 5° C | 77% | 1105 hPa | - | - | - | - |
| 1777722013 | 30° C | 19% | 1102.7 hPa | - | - | - | - |
| 1777721414 | 28.89° C | 19% | 1102.8 hPa | - | - | - | - |
| 1777720815 | 29.44° C | 20% | 1102.9 hPa | - | - | - | - |
| 1777720216 | 30° C | 20% | 1102.9 hPa | - | - | - | - |
| 1777719624 | 29.44° C | 19% | 1103.1 hPa | - | - | - | - |
| 1777719017 | 31.11° C | 18% | 1103.2 hPa | - | - | - | - |
| 1777718418 | 30.56° C | 17% | 1103.3 hPa | - | - | - | - |
| 1777717819 | 30° C | 17% | 1103.4 hPa | - | - | - | - |
| 1777717220 | 30.56° C | 19% | 1103.6 hPa | - | - | - | - |
| 1777716621 | 30.56° C | 18% | 1103.6 hPa | - | - | - | - |
| 1777716022 | 29.44° C | 20% | 1103.8 hPa | - | - | - | - |
| 1777715423 | 29.44° C | 18% | 1103.8 hPa | - | - | - | - |
| 1777714824 | 28.33° C | 20% | 1103.9 hPa | - | - | - | - |
| 1777714224 | 30° C | 19% | 1104 hPa | - | - | - | - |
| 1777713622 | 29.44° C | 21% | 1104.1 hPa | - | - | - | - |
| 1777713023 | 27.78° C | 24% | 1104.3 hPa | - | - | - | - |
| 1777712424 | 28.33° C | 21% | 1104.2 hPa | - | - | - | - |
| 1777711825 | 28.33° C | 22% | 1104.3 hPa | - | - | - | - |
| 1777711226 | 26.11° C | 24% | 1104.4 hPa | - | - | - | - |
| 1777710627 | 24.44° C | 27% | 1104.5 hPa | - | - | - | - |
| 1777710028 | 25.56° C | 26% | 1104.6 hPa | - | - | - | - |
| 1777709429 | 24.44° C | 27% | 1104.8 hPa | - | - | - | - |
| 1777708826 | 25° C | 27% | 1104.7 hPa | - | - | - | - |
* Rain since midnight (hover to see other rain measurements)
** Current wind speed in m/s (hover to see current wind gust speed)